Time;durP1;ratioP1;P1;durP2;ratioP2;P2;SDS_P1;SDS_P2;PMS_P1;PMS_P2;Temp;Humidity;BMP_temperature;BMP_pressure;BME280_temperature;BME280_humidity;BME280_pressure;Samples;Min_cycle;Max_cycle;Signal;HPM_P1;HPM_P2
2022/06/13 00:01:27;;;;;;;;;;;;;;;13.96;100.00;99643.19;5094051;28;19961;-79
2022/06/13 00:03:55;;;;;;;;;;;;;;;13.66;100.00;99634.94;5076363;28;19924;-79
2022/06/13 00:06:22;;;;;;;;;;;;;;;13.49;100.00;99638.09;5093862;28;19986;-79
2022/06/13 00:08:49;;;;;;;;;;;;;;;13.54;100.00;99629.19;5093987;28;19924;-79
2022/06/13 00:11:18;;;;;;;;;;;;;;;13.61;100.00;99623.44;5092807;28;20774;-79
2022/06/13 00:13:48;;;;;;;;;;;;;;;13.49;100.00;99622.06;5094305;28;20023;-79
2022/06/13 00:16:15;;;;;;;;;;;;;;;13.63;100.00;99621.75;5043187;28;19939;-79
2022/06/13 00:18:49;;;;;;;;;;;;;;;13.19;100.00;99615.81;5059483;28;19928;-79
2022/06/13 00:21:17;;;;;;;;;;;;;;;13.20;100.00;99611.75;5093867;28;20010;-79
2022/06/13 00:23:44;;;;;;;;;;;;;;;13.23;100.00;99610.91;5076091;28;19931;-79
2022/06/13 00:26:11;;;;;;;;;;;;;;;13.23;100.00;99624.94;5093973;28;19931;-79
2022/06/13 00:28:39;;;;;;;;;;;;;;;13.16;100.00;99619.47;5059242;28;19930;-79
2022/06/13 00:31:06;;;;;;;;;;;;;;;13.05;100.00;99624.47;5094210;28;19928;-79
2022/06/13 00:33:33;;;;;;;;;;;;;;;13.26;100.00;99618.47;5109633;28;19924;-78
2022/06/13 00:36:01;;;;;;;;;;;;;;;13.14;100.00;99619.88;5092564;28;19924;-79
2022/06/13 00:38:28;;;;;;;;;;;;;;;12.84;100.00;99613.56;5094248;28;19993;-79
2022/06/13 00:40:55;;;;;;;;;;;;;;;13.36;100.00;99612.66;5075927;28;20009;-79
2022/06/13 00:43:22;;;;;;;;;;;;;;;13.25;100.00;99630.94;5076284;28;19931;-79
2022/06/13 00:45:50;;;;;;;;;;;;;;;13.28;100.00;99638.50;5109507;28;19924;-79
2022/06/13 00:48:19;;;;;;;;;;;;;;;13.50;100.00;99648.91;5093738;28;19935;-79
2022/06/13 00:50:55;;;;;;;;;;;;;;;13.56;100.00;99646.38;5093836;28;19931;-78
2022/06/13 00:53:27;;;;;;;;;;;;;;;13.45;100.00;99649.38;5096000;28;19924;-78
2022/06/13 00:55:57;;;;;;;;;;;;;;;13.15;100.00;99649.53;5079680;28;19924;-79
2022/06/13 00:58:26;;;;;;;;;;;;;;;13.18;100.00;99673.13;5062906;28;19931;-79
2022/06/13 01:00:54;;;;;;;;;;;;;;;13.33;100.00;99674.50;5079759;28;19924;-79
2022/06/13 01:03:22;;;;;;;;;;;;;;;13.51;100.00;99675.75;5079220;28;19928;-79
2022/06/13 01:05:50;;;;;;;;;;;;;;;13.53;100.00;99670.50;5062393;28;19924;-79
2022/06/13 01:08:19;;;;;;;;;;;;;;;13.35;100.00;99666.41;5097370;28;19928;-78
2022/06/13 01:13:37;;;;;;;;;;;;;;;13.87;100.00;99664.66;5079033;28;19925;-79
2022/06/13 01:16:16;;;;;;;;;;;;;;;13.76;100.00;99664.06;5097292;28;19938;-80
2022/06/13 01:18:59;;;;;;;;;;;;;;;13.85;100.00;99656.66;5078176;28;19924;-78
2022/06/13 01:21:38;;;;;;;;;;;;;;;14.04;100.00;99663.50;5096957;28;20010;-79
2022/06/13 01:24:21;;;;;;;;;;;;;;;13.77;100.00;99665.63;5096848;28;20378;-78
2022/06/13 01:26:52;;;;;;;;;;;;;;;13.69;100.00;99669.81;5095916;28;19931;-78
2022/06/13 01:29:42;;;;;;;;;;;;;;;14.12;100.00;99662.91;5096737;28;20018;-78
2022/06/13 01:32:15;;;;;;;;;;;;;;;13.49;100.00;99663.38;5078327;28;19972;-79
2022/06/13 01:35:00;;;;;;;;;;;;;;;13.39;100.00;99667.16;5078778;28;19974;-78
2022/06/13 01:37:27;;;;;;;;;;;;;;;13.38;100.00;99665.56;5096708;28;19928;-79
2022/06/13 01:40:12;;;;;;;;;;;;;;;13.53;100.00;99661.28;5078690;28;19928;-78
2022/06/13 01:42:52;;;;;;;;;;;;;;;13.49;100.00;99663.38;5096686;28;19946;-78
2022/06/13 01:45:38;;;;;;;;;;;;;;;13.90;100.00;99669.41;5096469;28;19924;-78
2022/06/13 01:48:23;;;;;;;;;;;;;;;13.90;100.00;99669.41;5094746;28;19924;-78
2022/06/13 01:50:51;;;;;;;;;;;;;;;14.11;100.00;99675.41;5078512;28;19944;-79
2022/06/13 01:53:24;;;;;;;;;;;;;;;14.15;100.00;99680.91;5111856;28;20391;-79
2022/06/13 01:55:57;;;;;;;;;;;;;;;14.25;100.00;99680.72;5078114;28;19946;-79
2022/06/13 01:58:33;;;;;;;;;;;;;;;14.18;100.00;99685.69;5077867;28;20001;-79
2022/06/13 02:01:04;;;;;;;;;;;;;;;14.23;100.00;99686.00;5096022;28;20011;-79
2022/06/13 02:03:57;;;;;;;;;;;;;;;14.20;100.00;99688.84;5078128;28;20015;-79
2022/06/13 02:06:27;;;;;;;;;;;;;;;13.94;100.00;99681.34;5076387;28;19977;-79
2022/06/13 02:09:01;;;;;;;;;;;;;;;14.13;100.00;99672.91;5077692;28;20419;-79
2022/06/13 02:11:31;;;;;;;;;;;;;;;13.89;100.00;99682.66;5077909;28;20042;-78
2022/06/13 02:14:16;;;;;;;;;;;;;;;13.92;100.00;99678.16;5096013;28;20014;-78
2022/06/13 02:16:47;;;;;;;;;;;;;;;13.70;100.00;99677.81;5095377;28;19931;-79
2022/06/13 02:19:17;;;;;;;;;;;;;;;13.60;100.00;99678.00;5095630;28;19924;-79
2022/06/13 02:21:50;;;;;;;;;;;;;;;13.72;100.00;99680.19;5077790;28;20015;-78
2022/06/13 02:24:22;;;;;;;;;;;;;;;13.60;100.00;99683.63;5095758;28;20367;-78
2022/06/13 02:26:51;;;;;;;;;;;;;;;13.62;100.00;99675.53;5077647;28;20023;-78
2022/06/13 02:29:22;;;;;;;;;;;;;;;13.81;100.00;99677.59;5060482;28;19928;-79
2022/06/13 02:31:49;;;;;;;;;;;;;;;13.76;100.00;99675.28;5076966;28;19981;-79
2022/06/13 02:34:20;;;;;;;;;;;;;;;13.47;100.00;99674.22;5111258;28;19928;-79
2022/06/13 02:36:50;;;;;;;;;;;;;;;13.72;100.00;99668.94;5077273;28;19924;-79
2022/06/13 02:39:20;;;;;;;;;;;;;;;13.22;100.00;99671.88;5095347;28;20299;-79
2022/06/13 02:41:54;;;;;;;;;;;;;;;13.00;100.00;99673.44;5095365;28;19927;-79
2022/06/13 02:44:25;;;;;;;;;;;;;;;13.12;100.00;99686.03;5093809;28;19924;-78
2022/06/13 02:46:58;;;;;;;;;;;;;;;13.40;100.00;99683.59;5094960;28;20481;-78
2022/06/13 02:49:30;;;;;;;;;;;;;;;13.66;100.00;99690.34;5077233;28;19931;-79
2022/06/13 02:51:59;;;;;;;;;;;;;;;13.34;100.00;99704.13;5094980;28;20062;-79
2022/06/13 02:54:31;;;;;;;;;;;;;;;13.50;100.00;99695.81;5060634;28;19924;-78
2022/06/13 02:57:24;;;;;;;;;;;;;;;13.56;100.00;99702.53;5076948;28;19946;-79
2022/06/13 02:59:58;;;;;;;;;;;;;;;13.24;100.00;99688.28;5060279;28;19985;-78
2022/06/13 03:02:37;;;;;;;;;;;;;;;13.58;100.00;99694.47;5076786;28;19994;-79
2022/06/13 03:05:09;;;;;;;;;;;;;;;13.46;100.00;99690.28;5110595;28;19931;-79
2022/06/13 03:07:40;;;;;;;;;;;;;;;13.53;100.00;99695.78;5060199;28;19924;-78
2022/06/13 03:10:12;;;;;;;;;;;;;;;13.43;100.00;99701.56;5076680;28;19928;-79
2022/06/13 03:12:39;;;;;;;;;;;;;;;13.28;100.00;99705.84;5076679;28;20364;-79
2022/06/13 03:15:27;;;;;;;;;;;;;;;13.63;100.00;99706.00;5075940;28;19935;-78
2022/06/13 03:18:05;;;;;;;;;;;;;;;13.25;100.00;99710.31;5094843;28;20280;-79
2022/06/13 03:20:39;;;;;;;;;;;;;;;13.55;100.00;99703.75;5076603;28;20030;-78
2022/06/13 03:23:18;;;;;;;;;;;;;;;13.34;100.00;99696.53;5094466;28;19947;-78
2022/06/13 03:25:54;;;;;;;;;;;;;;;13.48;100.00;99701.09;5094416;28;20065;-78
2022/06/13 03:28:24;;;;;;;;;;;;;;;13.46;100.00;99695.91;5094359;28;20366;-79
2022/06/13 03:30:55;;;;;;;;;;;;;;;13.30;100.00;99704.19;5093134;28;20275;-79
2022/06/13 03:33:41;;;;;;;;;;;;;;;13.50;100.00;99707.06;5076292;28;20374;-79
2022/06/13 03:36:34;;;;;;;;;;;;;;;13.49;100.00;99711.91;5094410;28;20014;-78
2022/06/13 03:39:07;;;;;;;;;;;;;;;13.22;100.00;99713.97;5094394;28;20033;-79
2022/06/13 03:41:37;;;;;;;;;;;;;;;13.04;100.00;99705.00;5093037;28;19932;-78
2022/06/13 03:44:09;;;;;;;;;;;;;;;13.05;100.00;99700.19;5076091;28;19924;-79
2022/06/13 03:46:42;;;;;;;;;;;;;;;13.11;100.00;99695.69;5094053;28;20417;-79
2022/06/13 03:49:16;;;;;;;;;;;;;;;13.00;100.00;99706.28;5076629;28;20413;-79
2022/06/13 03:51:45;;;;;;;;;;;;;;;12.91;100.00;99700.38;5076275;28;19924;-79
2022/06/13 03:54:12;;;;;;;;;;;;;;;12.93;100.00;99703.56;5076179;28;19924;-78
2022/06/13 03:56:45;;;;;;;;;;;;;;;12.69;100.00;99700.69;5092345;28;19930;-79
2022/06/13 03:59:19;;;;;;;;;;;;;;;12.97;100.00;99707.91;5094176;28;20370;-78
2022/06/13 04:01:56;;;;;;;;;;;;;;;12.83;100.00;99701.72;5076057;28;19931;-78
2022/06/13 04:04:32;;;;;;;;;;;;;;;12.89;100.00;99711.25;5075932;28;19931;-78
2022/06/13 04:07:01;;;;;;;;;;;;;;;12.78;100.00;99712.19;5075588;28;20379;-79
2022/06/13 04:09:40;;;;;;;;;;;;;;;12.89;100.00;99711.25;5093613;28;19928;-79
2022/06/13 04:12:14;;;;;;;;;;;;;;;12.75;100.00;99713.03;5093643;28;19931;-78
2022/06/13 04:14:47;;;;;;;;;;;;;;;12.90;100.00;99707.22;5093874;28;19924;-78
2022/06/13 04:17:26;;;;;;;;;;;;;;;13.20;100.00;99704.38;5093859;28;19924;-78
2022/06/13 04:20:12;;;;;;;;;;;;;;;12.93;100.00;99706.38;5093857;28;19924;-78
2022/06/13 04:22:48;;;;;;;;;;;;;;;13.11;100.00;99704.13;5093964;28;19928;-79
2022/06/13 04:25:25;;;;;;;;;;;;;;;13.14;100.00;99712.47;5076127;28;19931;-78
2022/06/13 04:28:02;;;;;;;;;;;;;;;13.04;100.00;99718.25;5060118;28;20374;-78
2022/06/13 04:30:31;;;;;;;;;;;;;;;13.12;100.00;99730.94;5079914;28;19960;-78
2022/06/13 04:33:00;;;;;;;;;;;;;;;13.22;100.00;99735.59;5097671;28;20390;-78
2022/06/13 04:35:29;;;;;;;;;;;;;;;12.80;100.00;99736.22;5097663;28;19924;-78
2022/06/13 04:37:57;;;;;;;;;;;;;;;12.79;100.00;99746.63;5079690;28;19981;-78
2022/06/13 04:40:50;;;;;;;;;;;;;;;13.04;100.00;99747.09;5079732;28;19930;-78
2022/06/13 04:43:20;;;;;;;;;;;;;;;13.14;100.00;99742.53;5079637;28;19943;-78
2022/06/13 04:46:03;;;;;;;;;;;;;;;13.30;100.00;99743.47;5097586;28;19924;-78
2022/06/13 04:48:31;;;;;;;;;;;;;;;13.20;100.00;99738.03;5113143;28;19924;-78
2022/06/13 04:51:00;;;;;;;;;;;;;;;13.23;100.00;99742.78;5079052;28;20344;-78
2022/06/13 04:54:00;;;;;;;;;;;;;;;13.29;100.00;99744.72;5079213;28;19924;-78
2022/06/13 04:56:28;;;;;;;;;;;;;;;12.91;100.00;99748.06;5046160;28;20065;-78
2022/06/13 04:58:57;;;;;;;;;;;;;;;13.13;100.00;99749.38;5079272;28;19924;-78
2022/06/13 05:01:25;;;;;;;;;;;;;;;13.18;100.00;99746.88;5097218;28;19924;-78
2022/06/13 05:03:53;;;;;;;;;;;;;;;13.33;100.00;99744.66;5079139;28;20026;-78
2022/06/13 05:06:30;;;;;;;;;;;;;;;13.05;100.00;99743.09;5079206;28;19962;-79
2022/06/13 05:09:06;;;;;;;;;;;;;;;12.94;100.00;99748.03;5062781;28;20333;-79
2022/06/13 05:11:55;;;;;;;;;;;;;;;12.97;100.00;99751.97;5078919;28;19923;-79
2022/06/13 05:14:34;;;;;;;;;;;;;;;12.95;100.00;99754.44;5096918;28;19928;-78
2022/06/13 05:17:07;;;;;;;;;;;;;;;12.71;100.00;99745.94;5097033;28;20019;-79
2022/06/13 05:19:37;;;;;;;;;;;;;;;13.42;100.00;99744.91;5096518;28;19931;-77
2022/06/13 05:22:04;;;;;;;;;;;;;;;13.44;100.00;99745.25;5078362;28;19932;-77
2022/06/13 05:24:50;;;;;;;;;;;;;;;13.50;100.00;99754.78;5096257;28;19957;-77
2022/06/13 05:27:17;;;;;;;;;;;;;;;13.13;100.00;99743.78;5096385;28;19931;-78
2022/06/13 05:29:45;;;;;;;;;;;;;;;13.36;100.00;99743.81;5112013;28;19930;-78
2022/06/13 05:32:13;;;;;;;;;;;;;;;13.33;100.00;99745.44;5095836;28;20359;-77
2022/06/13 05:34:42;;;;;;;;;;;;;;;13.20;100.00;99752.06;5061139;28;19939;-77
2022/06/13 05:37:09;;;;;;;;;;;;;;;13.28;100.00;99753.56;5096084;28;20534;-76
2022/06/13 05:39:36;;;;;;;;;;;;;;;13.64;100.00;99757.34;5095483;28;19930;-76
2022/06/13 05:42:04;;;;;;;;;;;;;;;13.94;100.00;99762.81;5077766;28;19924;-76
2022/06/13 05:44:31;;;;;;;;;;;;;;;14.02;100.00;99751.03;5095712;28;19954;-76
2022/06/13 05:46:58;;;;;;;;;;;;;;;13.84;100.00;99761.00;5095783;28;20387;-76
2022/06/13 05:49:25;;;;;;;;;;;;;;;13.91;100.00;99761.69;5096047;28;19924;-76
2022/06/13 05:51:53;;;;;;;;;;;;;;;13.69;100.00;99759.69;5095907;28;20383;-76
2022/06/13 05:54:20;;;;;;;;;;;;;;;13.71;100.00;99771.25;5077583;28;19974;-76
2022/06/13 05:56:47;;;;;;;;;;;;;;;13.94;100.00;99776.88;5095740;28;19928;-76
2022/06/13 05:59:14;;;;;;;;;;;;;;;14.25;100.00;99769.91;5111427;28;19924;-76
2022/06/13 06:01:42;;;;;;;;;;;;;;;14.70;100.00;99767.34;5095552;28;20019;-77
2022/06/13 06:04:09;;;;;;;;;;;;;;;14.43;100.00;99764.72;5077672;28;20140;-76
2022/06/13 06:06:37;;;;;;;;;;;;;;;14.16;100.00;99767.59;5095756;28;19924;-76
2022/06/13 06:09:05;;;;;;;;;;;;;;;14.25;100.00;99755.84;5095514;28;19931;-77
2022/06/13 06:11:32;;;;;;;;;;;;;;;14.43;100.00;99764.72;5095322;28;19931;-76
2022/06/13 06:13:59;;;;;;;;;;;;;;;14.33;100.00;99762.88;5095652;28;19928;-76
2022/06/13 06:16:27;;;;;;;;;;;;;;;14.25;100.00;99758.66;5111130;28;19931;-76
2022/06/13 06:18:54;;;;;;;;;;;;;;;14.03;100.00;99763.06;5095552;28;19931;-76
2022/06/13 06:21:21;;;;;;;;;;;;;;;13.80;100.00;99765.88;5095205;28;19925;-76
2022/06/13 06:23:48;;;;;;;;;;;;;;;14.04;100.00;99776.69;5095234;28;19932;-76
2022/06/13 06:26:19;;;;;;;;;;;;;;;14.26;100.00;99768.66;5060723;28;19930;-76
2022/06/13 06:28:46;;;;;;;;;;;;;;;14.19;100.00;99774.41;5094577;28;19924;-77
2022/06/13 06:31:13;;;;;;;;;;;;;;;14.31;100.00;99773.78;5095117;28;19924;-76
2022/06/13 06:33:40;;;;;;;;;;;;;;;14.67;100.00;99766.22;5095155;28;19928;-78
2022/06/13 06:36:12;;;;;;;;;;;;;;;14.35;100.00;99771.69;5095552;28;20540;-75
2022/06/13 06:38:39;;;;;;;;;;;;;;;14.21;100.00;99781.19;5077140;28;20000;-75
2022/06/13 06:41:06;;;;;;;;;;;;;;;14.14;100.00;99784.13;5094996;28;19924;-76
2022/06/13 06:43:33;;;;;;;;;;;;;;;14.09;100.00;99778.19;5094722;28;19955;-76
2022/06/13 06:46:01;;;;;;;;;;;;;;;14.09;100.00;99779.00;5076501;28;19960;-76
2022/06/13 06:48:28;;;;;;;;;;;;;;;14.24;100.00;99773.91;5094961;28;19947;-76
2022/06/13 06:50:55;;;;;;;;;;;;;;;14.01;100.00;99779.56;5093908;28;19931;-77
2022/06/13 06:53:24;;;;;;;;;;;;;;;14.37;100.00;99769.25;5094308;28;20309;-76
2022/06/13 07:01:24;;;;;;;;;;;;;;;14.22;100.00;99794.00;5094310;28;19924;-75
2022/06/13 07:03:51;;;;;;;;;;;;;;;14.20;100.00;99812.53;5094285;28;19947;-77
2022/06/13 07:06:19;;;;;;;;;;;;;;;14.36;100.00;99804.19;5076014;28;19931;-76
2022/06/13 07:08:46;;;;;;;;;;;;;;;13.75;100.00;99812.09;5076608;28;19985;-77
2022/06/13 07:14:10;;;;;;;;;;;;;;;14.03;100.00;99816.44;5094336;28;19935;-76
2022/06/13 07:16:38;;;;;;;;;;;;;;;14.22;100.00;99816.47;5094046;28;19931;-76
2022/06/13 07:19:05;;;;;;;;;;;;;;;14.20;100.00;99818.94;5110051;28;20458;-78
2022/06/13 07:21:33;;;;;;;;;;;;;;;14.63;100.00;99827.34;5109675;28;19971;-77
2022/06/13 07:24:00;;;;;;;;;;;;;;;14.30;100.00;99812.34;5094260;28;20372;-77
2022/06/13 07:26:27;;;;;;;;;;;;;;;14.39;100.00;99820.19;5094149;28;20450;-77
2022/06/13 07:28:55;;;;;;;;;;;;;;;14.69;100.00;99824.84;5076170;28;20361;-77
2022/06/13 07:31:32;;;;;;;;;;;;;;;14.91;100.00;99814.72;5076097;28;19980;-77
2022/06/13 07:34:00;;;;;;;;;;;;;;;14.63;100.00;99826.59;5094179;28;20398;-77
2022/06/13 07:36:28;;;;;;;;;;;;;;;14.60;100.00;99814.16;5075898;28;20057;-77
2022/06/13 07:38:55;;;;;;;;;;;;;;;14.84;100.00;99810.06;5075844;28;20426;-77
2022/06/13 07:41:23;;;;;;;;;;;;;;;14.67;100.00;99816.84;5075972;28;19924;-77
2022/06/13 07:43:52;;;;;;;;;;;;;;;14.82;100.00;99818.13;5093809;28;20371;-77
2022/06/13 07:46:20;;;;;;;;;;;;;;;15.05;100.00;99811.59;5093456;28;19924;-77
2022/06/13 07:48:49;;;;;;;;;;;;;;;15.46;100.00;99826.78;5093760;28;20255;-77
2022/06/13 07:51:17;;;;;;;;;;;;;;;15.41;100.00;99824.47;5075869;28;20019;-77
2022/06/13 07:53:45;;;;;;;;;;;;;;;15.59;100.00;99827.66;5075937;28;19924;-77
2022/06/13 07:56:23;;;;;;;;;;;;;;;16.27;100.00;99823.94;5090926;28;19931;-77
2022/06/13 07:58:51;;;;;;;;;;;;;;;16.34;100.00;99830.16;5075849;28;19932;-77
2022/06/13 08:01:19;;;;;;;;;;;;;;;16.38;100.00;99821.59;5076328;28;19924;-77
2022/06/13 08:03:46;;;;;;;;;;;;;;;16.27;100.00;99831.13;5097678;28;19924;-77
2022/06/13 08:06:13;;;;;;;;;;;;;;;16.07;100.00;99838.91;5097928;28;20432;-76
2022/06/13 08:08:41;;;;;;;;;;;;;;;16.01;100.00;99831.44;5063116;28;19973;-77
2022/06/13 08:11:09;;;;;;;;;;;;;;;16.05;100.00;99830.09;5079790;28;19978;-76
2022/06/13 08:13:36;;;;;;;;;;;;;;;16.52;100.00;99818.41;5079542;28;19963;-76
2022/06/13 08:16:04;;;;;;;;;;;;;;;16.67;100.00;99819.59;5046213;28;19986;-77
2022/06/13 08:18:31;;;;;;;;;;;;;;;17.40;100.00;99827.88;5097382;28;19935;-77
2022/06/13 08:20:58;;;;;;;;;;;;;;;17.85;100.00;99811.47;5079640;28;19928;-77
2022/06/13 08:23:26;;;;;;;;;;;;;;;17.62;100.00;99823.94;5079561;28;19924;-77
2022/06/13 08:25:53;;;;;;;;;;;;;;;16.84;100.00;99832.41;5097470;28;19978;-77
2022/06/13 08:28:20;;;;;;;;;;;;;;;16.79;100.00;99835.78;5097593;28;19967;-77
2022/06/13 08:30:50;;;;;;;;;;;;;;;16.46;100.00;99832.28;5097155;28;19924;-77
2022/06/13 08:33:17;;;;;;;;;;;;;;;16.18;100.00;99847.91;5097213;28;19951;-78
2022/06/13 08:35:44;;;;;;;;;;;;;;;16.08;100.00;99839.72;5097099;28;20379;-77
2022/06/13 08:38:12;;;;;;;;;;;;;;;16.27;100.00;99836.78;5096666;28;19924;-76
2022/06/13 08:40:58;;;;;;;;;;;;;;;16.57;100.00;99837.63;5096292;28;19923;-76
2022/06/13 08:43:36;;;;;;;;;;;;;;;16.51;100.00;99851.47;5101554;28;19932;-76
2022/06/13 08:46:06;;;;;;;;;;;;;;;16.05;100.00;99841.38;5098234;28;19928;-76
2022/06/13 08:48:38;;;;;;;;;;;;;;;16.32;100.00;99854.38;5112972;28;19924;-76
2022/06/13 08:51:11;;;;;;;;;;;;;;;16.47;100.00;99849.97;5112917;28;20369;-78
2022/06/13 08:53:38;;;;;;;;;;;;;;;16.67;100.00;99853.44;5093160;28;19980;-76
2022/06/13 08:56:11;;;;;;;;;;;;;;;16.98;100.00;99848.94;5097826;28;19931;-76
2022/06/13 08:58:57;;;;;;;;;;;;;;;17.56;100.00;99837.06;5094042;28;19924;-76
2022/06/13 09:01:40;;;;;;;;;;;;;;;17.06;100.00;99839.81;5113369;28;20378;-76
2022/06/13 09:04:14;;;;;;;;;;;;;;;16.91;100.00;99837.84;5113573;28;19923;-76
2022/06/13 09:06:45;;;;;;;;;;;;;;;16.72;100.00;99833.16;5113465;28;19924;-76
2022/06/13 09:09:18;;;;;;;;;;;;;;;16.39;100.00;99826.00;5113222;28;19981;-76
2022/06/13 09:12:05;;;;;;;;;;;;;;;16.62;100.00;99835.03;5094924;28;19946;-76
2022/06/13 09:14:35;;;;;;;;;;;;;;;16.51;100.00;99830.94;5112680;28;20022;-76
2022/06/13 09:17:11;;;;;;;;;;;;;;;16.22;100.00;99833.72;5077505;28;20485;-76
2022/06/13 09:19:54;;;;;;;;;;;;;;;15.88;100.00;99856.72;5113137;28;20012;-76
2022/06/13 09:22:29;;;;;;;;;;;;;;;15.73;100.00;99852.69;5094862;28;19928;-75
2022/06/13 09:25:07;;;;;;;;;;;;;;;15.94;100.00;99851.34;5112681;28;19962;-75
2022/06/13 09:27:54;;;;;;;;;;;;;;;16.19;100.00;99846.66;5112778;28;19927;-77
2022/06/13 09:30:26;;;;;;;;;;;;;;;16.28;100.00;99855.28;5112389;28;20279;-75
2022/06/13 09:32:58;;;;;;;;;;;;;;;16.14;100.00;99857.69;5094590;28;20303;-76
2022/06/13 09:35:28;;;;;;;;;;;;;;;16.20;100.00;99847.47;5094155;28;19928;-76
2022/06/13 09:38:18;;;;;;;;;;;;;;;16.49;100.00;99867.25;5111862;28;19973;-75
2022/06/13 09:41:06;;;;;;;;;;;;;;;16.36;100.00;99852.28;5113032;28;19928;-76
2022/06/13 09:43:46;;;;;;;;;;;;;;;16.89;100.00;99865.75;5112330;28;19924;-75
2022/06/13 09:46:13;;;;;;;;;;;;;;;16.45;100.00;99863.75;5111442;28;19924;-76
2022/06/13 09:49:03;;;;;;;;;;;;;;;16.32;100.00;99866.47;5094010;28;20065;-76
2022/06/13 09:51:53;;;;;;;;;;;;;;;16.47;100.00;99862.06;5012173;28;19929;-76
2022/06/13 09:54:21;;;;;;;;;;;;;;;16.95;100.00;99861.91;5028608;28;19929;-76
2022/06/13 09:56:48;;;;;;;;;;;;;;;17.18;100.00;99858.00;5012056;28;19925;-76
2022/06/13 09:59:20;;;;;;;;;;;;;;;17.03;100.00;99842.72;5029148;28;20133;-75
2022/06/13 10:01:55;;;;;;;;;;;;;;;16.98;100.00;99852.53;5029111;28;19925;-75
2022/06/13 10:04:29;;;;;;;;;;;;;;;16.89;100.00;99860.88;5028559;28;19929;-75
2022/06/13 10:06:56;;;;;;;;;;;;;;;16.57;100.00;99863.00;5026665;28;19933;-75
2022/06/13 10:09:38;;;;;;;;;;;;;;;16.85;100.00;99860.19;5026769;28;19925;-75
2022/06/13 10:12:29;;;;;;;;;;;;;;;16.64;100.00;99877.72;5010467;28;20312;-75
2022/06/13 10:15:02;;;;;;;;;;;;;;;16.20;100.00;99872.81;5027015;28;19932;-74
2022/06/13 10:17:31;;;;;;;;;;;;;;;16.73;100.00;99868.59;5026799;28;19979;-74
2022/06/13 10:20:04;;;;;;;;;;;;;;;16.91;100.00;99857.59;5027527;28;19925;-74
2022/06/13 10:22:35;;;;;;;;;;;;;;;16.85;100.00;99862.22;5011806;28;19936;-75
2022/06/13 10:25:14;;;;;;;;;;;;;;;16.88;100.00;99859.28;5030372;28;19932;-76
2022/06/13 10:27:48;;;;;;;;;;;;;;;16.38;100.00;99863.88;5041294;28;19929;-77
2022/06/13 10:30:31;;;;;;;;;;;;;;;16.57;100.00;99854.56;5114981;28;19924;-76
2022/06/13 10:33:04;;;;;;;;;;;;;;;16.57;100.00;99866.59;5115111;28;19925;-77
2022/06/13 10:35:31;;;;;;;;;;;;;;;17.09;100.00;99867.13;5115311;28;19928;-77
2022/06/13 10:38:14;;;;;;;;;;;;;;;16.99;100.00;99864.63;5115233;28;19924;-77
2022/06/13 10:40:41;;;;;;;;;;;;;;;16.97;100.00;99856.59;5097359;28;19924;-77
2022/06/13 10:43:09;;;;;;;;;;;;;;;17.33;100.00;99854.28;5096746;28;19931;-77
2022/06/13 10:45:37;;;;;;;;;;;;;;;17.43;100.00;99860.88;5114872;28;19982;-77
2022/06/13 10:48:11;;;;;;;;;;;;;;;17.36;100.00;99866.72;5115187;28;19937;-77
2022/06/13 10:50:41;;;;;;;;;;;;;;;17.32;100.00;99871.69;5080023;28;19946;-77
2022/06/13 10:53:13;;;;;;;;;;;;;;;17.82;100.00;99868.91;5114946;28;20014;-77
2022/06/13 10:55:42;;;;;;;;;;;;;;;18.15;100.00;99866.59;5097030;28;19924;-77
2022/06/13 10:58:09;;;;;;;;;;;;;;;18.07;100.00;99860.41;5079746;28;20006;-77
2022/06/13 11:00:36;;;;;;;;;;;;;;;17.59;100.00;99875.72;5096670;28;19939;-77
2022/06/13 11:03:10;;;;;;;;;;;;;;;17.43;100.00;99860.88;5114653;28;19930;-77
2022/06/13 11:05:48;;;;;;;;;;;;;;;17.36;100.00;99880.84;5096668;28;19946;-77
2022/06/13 11:08:15;;;;;;;;;;;;;;;17.19;100.00;99879.38;5115126;28;19931;-77
2022/06/13 11:10:51;;;;;;;;;;;;;;;17.28;100.00;99876.66;5114619;28;20364;-77
2022/06/13 11:13:23;;;;;;;;;;;;;;;17.85;100.00;99871.66;5096357;28;19924;-77
2022/06/13 11:24:30;;;;;;;;;;;;;;;17.93;100.00;99855.22;5114451;28;19935;-77
2022/06/13 11:29:43;;;;;;;;;;;;;;;17.45;100.00;99866.88;5096187;28;19958;-77
2022/06/13 11:32:21;;;;;;;;;;;;;;;17.49;100.00;99870.41;5114322;28;19992;-77
2022/06/13 11:34:49;;;;;;;;;;;;;;;17.23;100.00;99865.91;5114448;28;19924;-77
2022/06/13 11:37:18;;;;;;;;;;;;;;;17.19;100.00;99868.84;5114194;28;19923;-77
2022/06/13 11:39:47;;;;;;;;;;;;;;;16.72;100.00;99867.78;5114402;28;19969;-77
2022/06/13 11:42:20;;;;;;;;;;;;;;;17.06;100.00;99870.06;5114034;28;19924;-77
2022/06/13 11:44:50;;;;;;;;;;;;;;;17.15;100.00;99873.81;5114124;28;19924;-77
2022/06/13 11:47:21;;;;;;;;;;;;;;;17.21;100.00;99868.38;5113396;28;20197;-77
2022/06/13 11:49:52;;;;;;;;;;;;;;;17.95;100.00;99864.03;5096098;28;19946;-77
2022/06/13 11:55:30;;;;;;;;;;;;;;;18.07;100.00;99860.41;5075461;28;20333;-77
2022/06/13 11:58:03;;;;;;;;;;;;;;;18.15;100.00;99861.75;5059272;28;19971;-77
2022/06/13 12:00:36;;;;;;;;;;;;;;;17.63;100.00;99861.47;5075955;28;19924;-77
2022/06/13 12:03:06;;;;;;;;;;;;;;;17.16;100.00;99863.31;5075845;28;20321;-76
2022/06/13 12:05:35;;;;;;;;;;;;;;;17.33;100.00;99861.97;5093604;28;19940;-76
2022/06/13 12:08:15;;;;;;;;;;;;;;;17.96;100.00;99862.81;5093780;28;19924;-77
2022/06/13 12:11:02;;;;;;;;;;;;;;;17.55;100.00;99857.28;5093341;28;19935;-76
2022/06/13 12:13:31;;;;;;;;;;;;;;;17.41;100.00;99852.03;5083326;28;19974;-76
2022/06/13 12:16:05;;;;;;;;;;;;;;;17.23;100.00;99857.44;5059043;28;20363;-78
2022/06/13 12:18:35;;;;;;;;;;;;;;;17.08;100.00;99857.09;5093496;28;20521;-78
2022/06/13 12:21:11;;;;;;;;;;;;;;;17.10;100.00;99865.88;5093758;28;20472;-77
2022/06/13 12:23:43;;;;;;;;;;;;;;;17.02;100.00;99853.25;5093595;28;19924;-77
2022/06/13 12:26:28;;;;;;;;;;;;;;;17.03;100.00;99870.94;5075423;28;19924;-78
2022/06/13 12:28:58;;;;;;;;;;;;;;;17.19;100.00;99862.41;5075469;28;20299;-78
2022/06/13 12:31:34;;;;;;;;;;;;;;;17.37;100.00;99857.03;5093431;28;20447;-77
2022/06/13 12:34:11;;;;;;;;;;;;;;;17.68;100.00;99847.56;5074434;28;19924;-78
2022/06/13 12:36:38;;;;;;;;;;;;;;;17.89;100.00;99854.53;5058783;28;20516;-77
2022/06/13 12:39:23;;;;;;;;;;;;;;;18.12;100.00;99857.00;5093148;28;20440;-77
2022/06/13 12:41:56;;;;;;;;;;;;;;;17.60;100.00;99848.22;5087815;28;20302;-75
2022/06/13 12:44:43;;;;;;;;;;;;;;;17.88;100.00;99841.66;5088337;28;20531;-75
2022/06/13 12:47:26;;;;;;;;;;;;;;;18.29;100.00;99837.84;5088412;28;19960;-75
2022/06/13 12:49:56;;;;;;;;;;;;;;;18.28;100.00;99830.59;5090551;28;20398;-76
2022/06/13 12:52:42;;;;;;;;;;;;;;;18.00;100.00;99843.69;5092021;28;19952;-75
2022/06/13 12:55:34;;;;;;;;;;;;;;;17.88;100.00;99841.66;5092184;28;20418;-76
2022/06/13 12:58:19;;;;;;;;;;;;;;;18.02;100.00;99846.06;5091823;28;19924;-75
2022/06/13 13:00:53;;;;;;;;;;;;;;;18.41;100.00;99846.31;5092163;28;20031;-76
2022/06/13 13:03:43;;;;;;;;;;;;;;;18.07;100.00;99846.25;5057934;28;19948;-75
2022/06/13 13:06:37;;;;;;;;;;;;;;;17.99;100.00;99851.38;5092392;28;19924;-75
2022/06/13 13:09:17;;;;;;;;;;;;;;;17.45;100.00;99849.91;5032817;28;19929;-76
2022/06/13 13:11:44;;;;;;;;;;;;;;;17.16;100.00;99846.38;5049618;28;19931;-75
2022/06/13 13:14:27;;;;;;;;;;;;;;;16.84;100.00;99852.94;5033524;28;19924;-75
2022/06/13 13:16:57;;;;;;;;;;;;;;;16.96;100.00;99848.59;5051753;28;19932;-75
2022/06/13 13:19:40;;;;;;;;;;;;;;;17.14;100.00;99846.03;5035717;28;19929;-75
2022/06/13 13:22:24;;;;;;;;;;;;;;;17.03;100.00;99848.38;5053779;28;19962;-75
2022/06/13 13:25:10;;;;;;;;;;;;;;;17.29;100.00;99838.69;5053665;28;19925;-76
2022/06/13 13:28:04;;;;;;;;;;;;;;;17.44;100.00;99840.66;5053448;28;19933;-75
2022/06/13 13:30:52;;;;;;;;;;;;;;;17.58;100.00;99833.78;5036591;28;19925;-75